createdAt,value
2018-04-16T00:03:05.146Z,6.80
2018-04-16T00:10:33.163Z,7.20
2018-04-16T00:13:00.198Z,7.10
2018-04-16T00:15:28.437Z,7.10
2018-04-16T00:17:55.701Z,7.10
2018-04-16T00:20:22.100Z,7.20
2018-04-16T00:22:48.980Z,7.20
2018-04-16T00:25:17.051Z,7.30
2018-04-16T00:27:43.515Z,7.50
2018-04-16T00:30:11.207Z,7.40
2018-04-16T00:32:52.834Z,7.40
2018-04-16T00:38:00.479Z,7.50
2018-04-16T00:40:33.077Z,7.50
2018-04-16T00:43:05.934Z,7.60
2018-04-16T00:45:39.667Z,7.50
2018-04-16T00:48:12.277Z,7.50
2018-04-16T00:50:44.700Z,7.50
2018-04-16T00:53:17.505Z,7.40
2018-04-16T00:55:51.014Z,7.60
2018-04-16T00:58:23.531Z,7.40
2018-04-16T01:00:56.046Z,7.30
2018-04-16T01:03:28.592Z,7.20
2018-04-16T01:06:01.445Z,7.20
2018-04-16T01:16:17.710Z,7.10
2018-04-16T01:18:50.103Z,7.00
2018-04-16T01:21:23.237Z,7.00
2018-04-16T01:23:56.661Z,6.90
2018-04-16T01:26:29.125Z,6.80
2018-04-16T01:29:01.529Z,7.00
2018-04-16T01:31:34.508Z,7.00
2018-04-16T01:36:43.533Z,6.90
2018-04-16T01:39:16.053Z,6.90
2018-04-16T01:41:48.410Z,6.90
2018-04-16T01:44:21.119Z,6.90
2018-04-16T01:46:54.615Z,6.90
2018-04-16T01:49:27.857Z,6.90
2018-04-16T01:52:01.147Z,6.80
2018-04-16T01:54:34.423Z,6.80
2018-04-16T01:57:09.363Z,6.70
2018-04-16T01:59:41.929Z,6.70
2018-04-16T02:02:16.582Z,6.60
2018-04-16T02:04:52.088Z,6.70
2018-04-16T02:07:24.747Z,6.60
2018-04-16T02:09:58.923Z,6.70
2018-04-16T02:12:31.339Z,6.70
2018-04-16T02:17:38.967Z,6.70
2018-04-16T02:20:12.307Z,6.60
2018-04-16T02:22:44.849Z,6.60
2018-04-16T02:28:06.687Z,6.60
2018-04-16T02:30:39.650Z,6.50
2018-04-16T02:33:12.181Z,6.50
2018-04-16T02:35:45.099Z,6.40
2018-04-16T02:38:18.002Z,6.50
2018-04-16T02:40:51.294Z,6.40
2018-04-16T02:43:24.446Z,9.10
2018-04-16T02:45:57.345Z,6.00
2018-04-16T02:48:29.946Z,6.30
2018-04-16T02:51:03.040Z,6.40
2018-04-16T02:53:35.306Z,6.40
2018-04-16T02:56:09.041Z,6.40
2018-04-16T03:01:42.127Z,6.30
2018-04-16T03:04:16.048Z,6.40
2018-04-16T03:06:50.043Z,6.40
2018-04-16T03:09:23.192Z,6.50
2018-04-16T03:11:56.600Z,6.60
2018-04-16T03:14:29.141Z,6.80
2018-04-16T03:17:01.755Z,6.30
2018-04-16T03:19:35.012Z,6.60
2018-04-16T03:24:42.784Z,6.50
2018-04-16T03:29:49.376Z,6.50
2018-04-16T03:35:22.654Z,6.40
2018-04-16T03:37:55.946Z,6.40
2018-04-16T03:40:28.522Z,6.40
2018-04-16T03:43:00.851Z,6.50
2018-04-16T03:48:35.071Z,6.50
2018-04-16T03:51:19.386Z,6.40
2018-04-16T03:53:48.682Z,6.40
2018-04-16T03:56:15.980Z,6.40
2018-04-16T03:58:42.506Z,6.40
2018-04-16T04:01:10.476Z,6.40
2018-04-16T04:03:37.614Z,6.30
2018-04-16T04:06:04.083Z,6.30
2018-04-16T04:08:30.624Z,6.30
2018-04-16T04:10:57.214Z,6.60
2018-04-16T04:13:23.933Z,6.40
2018-04-16T04:15:50.988Z,6.50
2018-04-16T04:18:17.682Z,6.40
2018-04-16T04:23:26.019Z,6.50
2018-04-16T04:26:05.846Z,6.50
2018-04-16T04:28:44.281Z,6.50
2018-04-16T04:31:10.673Z,6.50
2018-04-16T04:33:37.089Z,6.50
2018-04-16T04:36:04.057Z,6.70
2018-04-16T04:38:30.760Z,6.70
2018-04-16T04:43:25.919Z,6.80
2018-04-16T04:45:52.417Z,6.80
2018-04-16T04:48:20.031Z,6.80
2018-04-16T04:53:17.166Z,6.50
2018-04-16T04:58:12.385Z,7.00
2018-04-16T05:00:38.768Z,6.90
2018-04-16T05:03:05.409Z,6.90
2018-04-16T05:05:32.527Z,7.10
2018-04-16T05:07:59.860Z,7.10
2018-04-16T05:10:26.311Z,7.20
2018-04-16T05:15:21.577Z,7.30
2018-04-16T05:17:48.239Z,7.40
2018-04-16T05:20:15.016Z,7.40
2018-04-16T05:22:42.079Z,7.40
2018-04-16T05:25:08.931Z,7.40
2018-04-16T05:27:35.643Z,7.50
2018-04-16T05:30:03.171Z,7.50
2018-04-16T05:32:30.064Z,7.60
2018-04-16T05:34:57.444Z,7.60
2018-04-16T05:37:25.030Z,7.70
2018-04-16T05:42:21.293Z,7.90
2018-04-16T05:44:48.264Z,7.80
2018-04-16T05:47:16.434Z,8.00
2018-04-16T05:49:44.337Z,8.10
2018-04-16T05:52:11.848Z,8.10
2018-04-16T05:54:39.292Z,8.20
2018-04-16T05:57:07.053Z,8.20
2018-04-16T05:59:33.827Z,8.30
2018-04-16T06:02:00.754Z,8.10
2018-04-16T06:04:27.230Z,8.40
2018-04-16T06:06:54.446Z,8.40
2018-04-16T06:09:21.597Z,8.50
2018-04-16T06:11:48.327Z,8.50
2018-04-16T06:14:14.903Z,8.60
2018-04-16T06:19:09.863Z,8.80
2018-04-16T06:24:05.155Z,8.80
2018-04-16T06:26:31.692Z,8.90
2018-04-16T06:28:58.593Z,8.90
2018-04-16T06:31:26.283Z,9.00
2018-04-16T06:33:53.473Z,9.00
2018-04-16T06:36:20.273Z,9.10
2018-04-16T06:38:47.544Z,9.10
2018-04-16T06:43:43.755Z,9.20
2018-04-16T06:46:10.292Z,9.20
2018-04-16T06:48:36.778Z,9.20
2018-04-16T06:51:03.318Z,9.20
2018-04-16T06:55:57.849Z,9.40
2018-04-16T06:58:25.435Z,9.40
2018-04-16T07:00:52.227Z,9.40
2018-04-16T07:03:18.759Z,9.50
2018-04-16T07:05:45.401Z,9.70
2018-04-16T07:13:08.624Z,9.90
2018-04-16T07:15:34.984Z,10.10
2018-04-16T07:18:02.190Z,10.10
2018-04-16T07:20:30.314Z,10.20
2018-04-16T07:22:59.063Z,10.20
2018-04-16T07:25:25.851Z,10.30
2018-04-16T07:27:53.029Z,10.40
2018-04-16T07:32:47.907Z,10.00
2018-04-16T07:35:15.209Z,10.10
2018-04-16T07:37:41.645Z,10.00
2018-04-16T07:40:10.394Z,9.90
2018-04-16T07:42:37.816Z,9.80
2018-04-16T07:45:05.490Z,9.80
2018-04-16T07:47:32.861Z,9.80
2018-04-16T07:49:59.601Z,9.90
2018-04-16T07:52:26.482Z,9.80
2018-04-16T07:54:52.962Z,10.10
2018-04-16T07:57:19.493Z,10.30
2018-04-16T07:59:45.898Z,10.60
2018-04-16T08:02:12.672Z,10.70
2018-04-16T08:07:08.710Z,11.00
2018-04-16T08:09:35.160Z,11.10
2018-04-16T08:12:01.623Z,11.30
2018-04-16T08:14:28.058Z,11.40
2018-04-16T08:19:22.601Z,12.10
2018-04-16T08:21:49.151Z,12.00
2018-04-16T08:24:15.807Z,11.90
2018-04-16T08:26:42.377Z,11.90
2018-04-16T08:29:08.755Z,12.00
2018-04-16T08:31:35.640Z,12.20
2018-04-16T08:34:02.949Z,12.30
2018-04-16T08:36:30.021Z,12.30
2018-04-16T08:38:56.911Z,12.30
2018-04-16T08:43:52.328Z,12.20
2018-04-16T08:46:19.944Z,12.30
2018-04-16T08:48:46.387Z,12.40
2018-04-16T08:51:13.204Z,12.10
2018-04-16T08:53:40.313Z,12.20
2018-04-16T08:56:07.137Z,12.20
2018-04-16T08:58:34.579Z,12.20
2018-04-16T09:01:01.200Z,12.30
2018-04-16T09:03:27.732Z,12.40
2018-04-16T09:05:54.111Z,12.50
2018-04-16T09:08:20.649Z,12.70
2018-04-16T09:10:47.316Z,12.70
2018-04-16T09:13:15.138Z,12.90
2018-04-16T09:18:10.042Z,13.50
2018-04-16T09:20:37.939Z,13.50
2018-04-16T09:23:06.754Z,13.40
2018-04-16T09:25:34.492Z,13.60
2018-04-16T09:28:02.074Z,13.70
2018-04-16T09:30:28.528Z,13.80
2018-04-16T09:32:55.694Z,13.80
2018-04-16T09:35:22.142Z,13.70
2018-04-16T09:40:17.331Z,13.40
2018-04-16T09:42:43.824Z,13.00
2018-04-16T09:45:11.813Z,13.20
2018-04-16T09:47:38.240Z,13.30
2018-04-16T09:50:06.317Z,13.20
2018-04-16T09:52:33.512Z,13.10
2018-04-16T09:54:59.981Z,13.30
2018-04-16T09:57:26.371Z,13.50
2018-04-16T09:59:53.779Z,13.20
2018-04-16T10:02:24.231Z,13.30
2018-04-16T10:04:52.150Z,13.30
2018-04-16T10:07:18.862Z,13.40
2018-04-16T10:09:48.688Z,13.50
2018-04-16T10:12:16.290Z,13.60
2018-04-16T10:14:43.615Z,13.80
2018-04-16T10:17:10.312Z,14.20
2018-04-16T10:19:37.980Z,14.40
2018-04-16T10:22:06.150Z,14.60
2018-04-16T10:24:33.378Z,14.40
2018-04-16T10:26:59.828Z,14.40
2018-04-16T10:29:27.338Z,14.80
2018-04-16T10:31:53.912Z,15.10
2018-04-16T10:34:21.588Z,15.20
2018-04-16T10:36:49.536Z,15.60
2018-04-16T10:39:16.724Z,15.70
2018-04-16T10:44:11.839Z,16.40
2018-04-16T10:46:39.396Z,16.00
2018-04-16T10:49:06.536Z,15.80
2018-04-16T10:51:33.002Z,15.40
2018-04-16T10:53:59.721Z,15.60
2018-04-16T10:58:55.542Z,17.00
2018-04-16T11:01:22.127Z,16.40
2018-04-16T11:03:50.372Z,16.20
2018-04-16T11:06:20.991Z,16.10
2018-04-16T11:08:47.628Z,16.80
2018-04-16T11:11:15.584Z,16.90
2018-04-16T11:13:42.735Z,16.90
2018-04-16T11:18:37.873Z,17.30
2018-04-16T11:21:04.485Z,18.20
2018-04-16T11:23:31.263Z,17.90
2018-04-16T11:25:57.886Z,17.80
2018-04-16T11:28:24.497Z,18.10
2018-04-16T11:30:52.448Z,17.70
2018-04-16T11:33:19.827Z,16.90
2018-04-16T11:35:46.528Z,16.40
2018-04-16T11:40:48.442Z,16.60
2018-04-16T11:43:15.064Z,17.80
2018-04-16T11:45:42.883Z,18.30
2018-04-16T11:48:10.751Z,17.20
2018-04-16T11:50:37.434Z,16.60
2018-04-16T11:53:04.192Z,17.10
2018-04-16T11:55:32.606Z,17.70
2018-04-16T11:57:59.819Z,18.60
2018-04-16T12:00:26.391Z,19.70
2018-04-16T12:02:53.101Z,19.30
2018-04-16T12:05:19.820Z,18.80
2018-04-16T12:10:14.891Z,18.70
2018-04-16T12:12:41.251Z,19.60
2018-04-16T12:17:36.369Z,19.30
2018-04-16T12:20:03.978Z,19.70
2018-04-16T12:22:30.804Z,20.50
2018-04-16T12:24:58.305Z,21.10
2018-04-16T12:29:53.249Z,20.70
2018-04-16T12:32:19.863Z,19.50
2018-04-16T12:34:46.940Z,18.60
2018-04-16T12:37:14.435Z,18.40
2018-04-16T12:39:40.953Z,18.00
2018-04-16T12:42:08.053Z,17.60
2018-04-16T12:44:36.171Z,17.00
2018-04-16T12:47:02.821Z,16.20
2018-04-16T12:49:30.404Z,15.50
2018-04-16T12:51:57.146Z,15.20
2018-04-16T12:56:52.606Z,14.90
2018-04-16T12:59:20.001Z,14.80
2018-04-16T13:01:47.736Z,14.80
2018-04-16T13:04:15.742Z,14.80
2018-04-16T13:09:11.050Z,15.10
2018-04-16T13:11:37.561Z,15.00
2018-04-16T13:14:04.368Z,14.30
2018-04-16T13:16:32.197Z,14.10
2018-04-16T13:18:58.803Z,13.90
2018-04-16T13:21:26.104Z,14.00
2018-04-16T13:23:53.655Z,13.40
2018-04-16T13:26:20.181Z,13.10
2018-04-16T13:28:48.192Z,13.20
2018-04-16T13:31:15.078Z,12.80
2018-04-16T13:33:41.679Z,13.00
2018-04-16T13:38:37.027Z,12.80
2018-04-16T13:41:04.461Z,12.70
2018-04-16T13:43:34.066Z,12.80
2018-04-16T13:46:00.971Z,12.80
2018-04-16T13:48:27.860Z,12.90
2018-04-16T13:50:54.776Z,13.00
2018-04-16T13:53:21.773Z,12.90
2018-04-16T13:55:49.716Z,12.80
2018-04-16T13:58:16.484Z,12.80
2018-04-16T14:00:43.150Z,12.90
2018-04-16T14:03:10.325Z,13.20
2018-04-16T14:05:39.375Z,13.40
2018-04-16T14:10:38.043Z,13.70
2018-04-16T14:13:06.102Z,14.00
2018-04-16T14:15:33.167Z,14.00
2018-04-16T14:18:01.249Z,14.00
2018-04-16T14:20:27.743Z,14.40
2018-04-16T14:25:22.590Z,13.70
2018-04-16T14:30:27.442Z,14.00
2018-04-16T14:32:54.506Z,14.10
2018-04-16T14:35:21.089Z,14.20
2018-04-16T14:37:47.942Z,14.10
2018-04-16T14:40:15.693Z,14.20
2018-04-16T14:42:42.540Z,14.00
2018-04-16T14:45:09.105Z,13.70
2018-04-16T14:47:36.020Z,13.60
2018-04-16T14:55:00.914Z,13.00
2018-04-16T14:57:28.559Z,12.30
2018-04-16T14:59:56.363Z,13.10
2018-04-16T15:02:24.995Z,13.10
2018-04-16T15:04:52.151Z,13.10
2018-04-16T15:09:56.785Z,13.30
2018-04-16T15:14:53.233Z,13.40
2018-04-16T15:17:20.292Z,13.40
2018-04-16T15:19:46.974Z,13.10
2018-04-16T15:22:17.456Z,13.10
2018-04-16T15:24:44.159Z,13.00
2018-04-16T15:27:11.929Z,13.00
2018-04-16T15:29:38.539Z,13.00
2018-04-16T15:32:17.043Z,12.80
2018-04-16T15:34:46.802Z,12.50
2018-04-16T15:37:14.836Z,12.50
2018-04-16T15:39:41.551Z,12.60
2018-04-16T15:42:07.940Z,12.70
2018-04-16T15:44:34.567Z,12.70
2018-04-16T15:47:01.040Z,12.70
2018-04-16T15:49:29.531Z,12.70
2018-04-16T15:51:56.141Z,12.80
2018-04-16T15:54:22.684Z,12.80
2018-04-16T15:56:49.485Z,12.80
2018-04-16T16:01:44.852Z,13.00
2018-04-16T16:04:12.065Z,12.90
2018-04-16T16:06:39.933Z,13.00
2018-04-16T16:09:07.801Z,13.00
2018-04-16T16:14:03.467Z,12.90
2018-04-16T16:16:30.506Z,12.70
2018-04-16T16:18:57.962Z,12.70
2018-04-16T16:21:24.917Z,12.50
2018-04-16T16:23:51.942Z,12.50
2018-04-16T16:26:18.672Z,12.50
2018-04-16T16:28:45.720Z,12.50
2018-04-16T16:31:13.091Z,12.40
2018-04-16T16:33:41.977Z,12.20
2018-04-16T16:36:08.751Z,12.40
2018-04-16T16:38:35.147Z,11.90
2018-04-16T16:41:01.793Z,11.70
2018-04-16T16:43:29.863Z,11.70
2018-04-16T16:45:56.303Z,11.60
2018-04-16T16:48:23.951Z,11.50
2018-04-16T16:50:51.287Z,11.60
2018-04-16T16:53:17.794Z,11.50
2018-04-16T16:55:45.023Z,11.80
2018-04-16T16:58:13.078Z,11.70
2018-04-16T17:00:39.583Z,11.60
2018-04-16T17:03:06.118Z,11.60
2018-04-16T17:05:33.393Z,11.60
2018-04-16T17:08:00.279Z,11.50
2018-04-16T17:10:26.748Z,11.20
2018-04-16T17:12:53.586Z,11.40
2018-04-16T17:15:22.073Z,11.40
2018-04-16T17:17:48.587Z,11.30
2018-04-16T17:20:17.834Z,11.30
2018-04-16T17:22:45.528Z,11.30
2018-04-16T17:25:12.297Z,11.40
2018-04-16T17:27:39.269Z,11.40
2018-04-16T17:30:06.390Z,11.40
2018-04-16T17:32:32.936Z,11.30
2018-04-16T17:34:59.870Z,11.20
2018-04-16T17:37:27.972Z,11.20
2018-04-16T17:42:23.119Z,11.20
2018-04-16T17:44:52.209Z,11.20
2018-04-16T17:47:19.038Z,11.20
2018-04-16T17:49:48.118Z,11.00
2018-04-16T17:52:15.004Z,10.80
2018-04-16T17:54:42.632Z,10.60
2018-04-16T17:57:11.217Z,10.50
2018-04-16T17:59:38.151Z,10.30
2018-04-16T18:02:06.767Z,10.30
2018-04-16T18:04:35.411Z,10.00
2018-04-16T18:07:02.408Z,9.90
2018-04-16T18:09:29.630Z,9.80
2018-04-16T18:11:57.312Z,9.60
2018-04-16T18:16:53.399Z,9.50
2018-04-16T18:19:20.023Z,9.50
2018-04-16T18:21:47.447Z,9.40
2018-04-16T18:24:14.542Z,9.30
2018-04-16T18:26:42.803Z,9.30
2018-04-16T18:29:12.379Z,9.20
2018-04-16T18:31:39.235Z,9.20
2018-04-16T18:34:06.263Z,8.90
2018-04-16T18:36:34.830Z,8.80
2018-04-16T18:39:04.026Z,8.80
2018-04-16T18:41:33.528Z,8.70
2018-04-16T18:44:01.842Z,8.60
2018-04-16T18:46:28.899Z,8.60
2018-04-16T18:48:57.769Z,8.50
2018-04-16T18:56:23.070Z,8.30
2018-04-16T18:58:50.136Z,7.90
2018-04-16T19:01:16.996Z,8.30
2018-04-16T19:03:43.579Z,8.10
2018-04-16T19:06:12.367Z,8.10
2018-04-16T19:08:39.254Z,8.10
2018-04-16T19:11:08.408Z,8.10
2018-04-16T19:13:36.261Z,8.10
2018-04-16T19:16:04.428Z,8.10
2018-04-16T19:21:12.342Z,8.00
2018-04-16T19:23:39.735Z,8.00
2018-04-16T19:26:06.561Z,8.00
2018-04-16T19:28:32.985Z,7.80
2018-04-16T19:30:59.752Z,7.80
2018-04-16T19:33:32.368Z,7.90
2018-04-16T19:35:58.951Z,7.80
2018-04-16T19:38:25.839Z,7.80
2018-04-16T19:40:53.325Z,7.70
2018-04-16T19:43:19.818Z,7.80
2018-04-16T19:45:47.327Z,7.50
2018-04-16T19:48:15.973Z,7.30
2018-04-16T19:50:45.947Z,7.60
2018-04-16T19:53:16.131Z,7.60
2018-04-16T19:55:48.977Z,7.60
2018-04-16T19:58:22.875Z,7.50
2018-04-16T20:00:51.778Z,7.40
2018-04-16T20:03:30.298Z,7.30
2018-04-16T20:05:57.601Z,7.10
2018-04-16T20:08:24.380Z,7.10
2018-04-16T20:10:53.267Z,7.00
2018-04-16T20:13:21.971Z,7.10
2018-04-16T20:15:49.386Z,7.10
2018-04-16T20:18:17.516Z,7.00
2018-04-16T20:20:44.201Z,7.20
2018-04-16T20:23:19.995Z,7.00
2018-04-16T20:28:41.179Z,7.30
2018-04-16T20:31:08.025Z,7.00
2018-04-16T20:33:34.904Z,7.00
2018-04-16T20:36:01.727Z,7.00
2018-04-16T20:38:30.654Z,7.10
2018-04-16T20:40:57.125Z,7.20
2018-04-16T20:43:24.547Z,7.20
2018-04-16T20:45:51.923Z,7.30
2018-04-16T20:48:18.421Z,7.50
2018-04-16T20:50:46.344Z,7.40
2018-04-16T20:53:14.084Z,7.50
2018-04-16T20:55:42.116Z,7.60
2018-04-16T20:58:09.440Z,7.60
2018-04-16T21:00:36.188Z,7.60
2018-04-16T21:03:03.737Z,7.60
2018-04-16T21:05:31.941Z,7.70
2018-04-16T21:07:58.635Z,7.90
2018-04-16T21:10:25.384Z,7.70
2018-04-16T21:12:52.086Z,7.70
2018-04-16T21:15:19.417Z,7.70
2018-04-16T21:17:45.803Z,7.60
2018-04-16T21:20:12.481Z,7.80
2018-04-16T21:22:38.857Z,7.80
2018-04-16T21:25:05.547Z,7.70
2018-04-16T21:27:32.015Z,7.70
2018-04-16T21:29:58.439Z,7.70
2018-04-16T21:32:24.981Z,7.70
2018-04-16T21:34:51.876Z,7.70
2018-04-16T21:37:18.297Z,7.70
2018-04-16T21:39:44.890Z,7.60
2018-04-16T21:42:11.457Z,7.80
2018-04-16T21:44:38.043Z,8.00
2018-04-16T21:47:05.423Z,7.90
2018-04-16T21:49:34.783Z,8.20
2018-04-16T21:52:09.760Z,7.90
2018-04-16T21:54:37.056Z,7.90
2018-04-16T21:57:03.843Z,7.90
2018-04-16T21:59:31.448Z,7.90
2018-04-16T22:01:57.867Z,7.80
2018-04-16T22:04:24.709Z,8.00
2018-04-16T22:06:51.272Z,8.00
2018-04-16T22:09:17.691Z,8.10
2018-04-16T22:11:44.147Z,8.20
2018-04-16T22:14:11.437Z,8.10
2018-04-16T22:16:37.989Z,8.00
2018-04-16T22:19:05.700Z,8.00
2018-04-16T22:21:33.440Z,8.30
2018-04-16T22:24:01.476Z,7.90
2018-04-16T22:26:28.384Z,8.10
2018-04-16T22:28:55.725Z,8.20
2018-04-16T22:31:23.524Z,8.20
2018-04-16T22:33:50.900Z,8.20
2018-04-16T22:36:18.793Z,8.40
2018-04-16T22:38:45.327Z,8.40
2018-04-16T22:41:17.715Z,8.30
2018-04-16T22:43:44.339Z,8.50
2018-04-16T22:46:11.428Z,8.60
2018-04-16T22:48:39.033Z,8.60
2018-04-16T22:51:07.913Z,8.80
2018-04-16T22:53:34.337Z,8.80
2018-04-16T22:56:01.604Z,8.80
2018-04-16T23:01:01.533Z,8.70
2018-04-16T23:03:29.288Z,8.70
2018-04-16T23:05:55.722Z,8.70
2018-04-16T23:08:22.401Z,8.60
2018-04-16T23:10:51.061Z,8.50
2018-04-16T23:13:18.535Z,8.40
2018-04-16T23:15:45.093Z,8.90
2018-04-16T23:18:14.260Z,8.80
2018-04-16T23:20:41.010Z,8.90
2018-04-16T23:23:07.466Z,8.90
2018-04-16T23:25:35.615Z,8.70
2018-04-16T23:28:02.470Z,8.90
2018-04-16T23:30:29.332Z,8.80
2018-04-16T23:32:57.606Z,8.90
2018-04-16T23:35:26.313Z,8.90
2018-04-16T23:43:47.962Z,9.00
2018-04-16T23:46:15.461Z,9.00
2018-04-16T23:48:42.218Z,8.80
2018-04-16T23:51:08.969Z,8.50
2018-04-16T23:53:36.199Z,8.70
2018-04-16T23:56:02.933Z,8.50
2018-04-16T23:58:29.404Z,8.40
